Tiempo atmosférico en la estación meteorológica de Santa Elena, Jaén (742 m.)



Fecha
DESCASC
Temp. máxima en grados centígrados (hora)
DESCASC
Temp. mínima en grados centígrados (hora)
DESCASC
Temp. media en grados centígrados
DESCASC
Racha de viento máxima en m/sg (hora)
DESCASC
Velocidad máxima media en intervalos de 10 minutos(hora)
DESCASC
Precipitaciones diarias en mm
DESCASC
Precipitaciones de 00:00 a 06:00 en mm
DESCASC
Precipitaciones de 06:00 a 12:00 en mm
DESCASC
Precipitaciones de 12:00 a 18:00 en mm
DESCASC
Precipitaciones de 18:00 a 24:00 en mm
DESCASC
27-07-2019 28.1 (16:30) 15.8 (00:00) 22 11.11 (14:40) 5.83 (17:50) 0 0 0 0 0
12-08-2019 31 (16:50) 17.9 (00:00) 24.4 11.39 (20:20) 5.28 (19:40) 0 0 0 0 0
26-07-2019 32.6 (17:20) 19.4 (00:00) 26 11.94 (13:40) 5 (20:30) 0 0 0 0 0
28-07-2019 33.9 (18:50) 16.8 (00:00) 25.4 7.5 (16:40) 3.33 (16:50) 0 0 0 0 0
11-08-2019 34 (16:30) 18.2 (00:00) 26.1 9.44 (13:50) 5 (19:50) 0 0 0 0 0
07-08-2019 34.2 (15:20) 19.2 (00:00) 26.7 8.89 (15:40) 3.33 (20:40) 0 0 0 0 0
13-08-2019 34.5 (17:40) 19 (00:00) 26.8 8.06 (02:40) 4.44 (03:10) 0 0 0 0 0
29-07-2019 34.8 (17:20) 17.3 (00:00) 26 9.44 (16:00) 3.89 (22:20) 0 0 0 0 0
10-08-2019 35.6 (17:10) 19.2 (00:00) 27.4 10 (16:50) 3.61 (16:10) 0 0 0 0 0
09-08-2019 35.7 (17:30) 18 (00:00) 26.9 9.72 (19:40) 3.89 (17:50) 0 0 0 0 0
14-08-2019 36 (17:00) 18.4 (00:00) 27.2 10.83 (15:40) 4.17 (16:30) 0 0 0 0 0
01-08-2019 36.2 (17:20) 19.6 (00:00) 27.9 9.44 (02:40) 4.17 (02:40) 0 0 0 0 0
08-08-2019 36.8 (17:10) 21.1 (00:00) 28.9 10.83 (18:20) 4.72 (18:30) 0 0 0 0 0
31-07-2019 37.3 (20:00) 21 (00:00) 29.1 7.78 (11:10) 2.78 (23:40) 0 0 0 0 0
15-08-2019 37.4 (17:30) 20.5 (00:00) 29 8.61 (14:30) 3.06 (14:50) 0 0 0 0 0
04-08-2019 37.6 (16:50) 19.4 (00:00) 28.5 8.89 (17:20) 3.33 (19:10) 0 0 0 0 0
30-07-2019 37.6 (18:40) 19.4 (00:00) 28.5 8.06 (16:10) 4.17 (08:20) 0 0 0 0 0
03-08-2019 37.8 (16:10) 20.4 (00:00) 29.1 8.33 (13:40) 3.33 (23:10) 0 0 0 0 0
16-08-2019 37.8 (16:10) 21.4 (07:40) 29.6 8.89 (17:10) 3.61 (17:10) 0 0 0 0 0
18-08-2019 37.9 (17:10) 21.3 (07:30) 29.6 9.17 (17:40) 4.17 (19:20) 0 0 0 0 0
25-07-2019 37.9 (18:20) 21.8 (00:00) 29.9 10.83 (18:00) 4.17 (18:30) 0 0 0 0 0
06-08-2019 38.2 (17:20) 19.1 (00:00) 28.7 10.28 (17:50) 4.44 (17:50) 0 0 0 0 0
05-08-2019 38.2 (16:50) 19.5 (00:00) 28.9 9.17 (19:10) 3.89 (16:30) 0 0 0 0 0
02-08-2019 38.2 (16:20) 19.8 (00:00) 29 9.72 (16:20) 3.33 (19:30) 0 0 0 0 0
17-08-2019 38.8 (16:50) 22.3 (07:40) 30.5 10.28 (17:50) 3.61 (16:50) 0 0 0 0 0
24-07-2019 39.9 (17:30) 22.8 (00:00) 31.4 8.33 (14:30) 3.33 (14:20) 0 0 0 0 0
21-07-2019 40.3 (18:00) 23.1 (00:00) 31.7 7.5 (22:00) 2.78 (17:10) 0 0 0 0 0
23-07-2019 40.7 (16:40) 23 (00:00) 31.9 11.39 (19:30) 3.89 (19:20) 0 0 0 0 0
22-07-2019 40.8 (19:10) 22.8 (00:00) 31.8 9.17 (16:30) 3.61 (21:30) 0 0 0 0 0

Gráficas

Temp. máximas Temp. mínimas Temp. medias Precipitaciones Rachas de viento máximas Velocidades máximas media en intervalos de 10 minutos

Datos horarios

Fecha y hora oficial Temperatura (ºC) Velocidad del viento (km/h) Dirección del viento Racha (km/h) Dirección de racha Precipitación (mm) Presión (hPa) Tendencia (hPa) Humedad (%)
2019-08-19 23:00:00 26.3 9 Sudoeste 18 Sudoeste 0 928.2 1.3 24
2019-08-19 22:00:00 27.5 5 Sur 15 Sur 0 927.6 0.7 17
2019-08-19 21:00:00 30.3 6 Sur 23 Sudoeste 0 927.1 0.1 12
2019-08-19 20:00:00 34.5 12 Sudoeste 24 Sudoeste 0 926.9 -0.5 9
2019-08-19 19:00:00 35.1 10 Sudoeste 31 Sudoeste 0 926.9 -1.1 9
2019-08-19 18:00:00 35.3 13 Sudoeste 32 Sudoeste 0 927 -1.4 11
2019-08-19 17:00:00 35.2 8 Sur 30 Sudoeste 0 927.4 -1.4 13
2019-08-19 16:00:00 35.1 9 Sudoeste 31 Sur 0 928 -1.1 14
2019-08-19 15:00:00 34 11 Sudoeste 25 Sudoeste 0 928.4 -0.8 15
2019-08-19 14:00:00 32.4 10 Sur 23 Sur 0 928.8 -0.3 20
2019-08-19 13:00:00 31.2 8 Sur 22 Sudeste 0 929.1 0.1 23
2019-08-19 12:00:00 29.3 9 Sudeste 19 Sudeste 0 929.2 0.4 28
2019-08-19 11:00:00 26.9 7 Sudeste 18 Sudeste 0 929.1 0.6 30
2019-08-19 10:00:00 23.8 6 Sudeste 12 Sudeste 0 929 0.7 39
2019-08-19 09:00:00 20.2 3 Norte 6 Norte 0 928.8 0.7 51
2019-08-19 08:00:00 18.7 5 Norte 7 Este 0 928.5 0.2 48
2019-08-19 07:00:00 19.3 3 Norte 5 Nordeste 0 928.3 -0.1 47
2019-08-19 06:00:00 19.7 3 Norte 7 Este 0 928.1 -0.6 39
2019-08-19 05:00:00 20.7 4 Este 10 Sudeste 0 928.3 -0.5 41
2019-08-19 04:00:00 21.9 3 Sudoeste 6 Sur 0 928.4 -0.3 40
2019-08-19 03:00:00 22.8 4 Sur 11 Sur 0 928.7 0.2 38
2019-08-19 02:00:00 23.8 7 Sur 13 Sur 0 928.8 0.6 32
2019-08-19 01:00:00 25.4 5 Sudoeste 15 Noroeste 0 928.7 1.4 20
2019-08-19 00:00:00 26.7 5 Oeste 14 Noroeste 0 928.5 1.9 19
2019-08-18 23:00:00 27.8 10 Oeste 17 Noroeste 0 928.2 1.9 18
2019-08-18 22:00:00 29.2 8 Sudoeste 23 Sudoeste 0 927.3 1.2 22
2019-08-18 21:00:00 31.3 12 Sudoeste 30 Sudoeste 0 926.6 0.2 18
2019-08-18 20:00:00 34.9 9 Sudoeste 29 Sudoeste 0 926.3 -0.3 13
2019-08-18 19:00:00 36.4 14 Sudoeste 33 Sudoeste 0 926.1 -0.9 11
2019-08-18 18:00:00 37.1 14 Sudoeste 33 Sudoeste 0 926.4 -1 11
2019-08-18 17:00:00 37.7 10 Sudoeste 32 Sudoeste 0 926.6 -1.3 11
2019-08-18 16:00:00 37.5 13 Sur 32 Sur 0 927 -1.3 11
2019-08-18 15:00:00 36.5 11 Sudoeste 31 Sudoeste 0 927.4 -1.1 12
2019-08-18 14:00:00 35.4 9 Sur 27 Sur 0 927.9 -0.3 13
2019-08-18 13:00:00 34.1 8 Sur 23 Sur 0 928.3 0.3 14
2019-08-18 12:00:00 32.1 10 Sur 21 Sudoeste 0 928.5 0.8 16
2019-08-18 11:00:00 29.6 6 Sur 15 Sudeste 0 928.2 0.7 21
2019-08-18 10:00:00 26.1 5 Sudeste 11 Sudeste 0 928 0.9 28
2019-08-18 09:00:00 22.3 0 Calma 5 Norte 0 927.7 0.7 35
2019-08-18 08:00:00 21.5 2 Norte 9 Sudoeste 0 927.5 0.4 34
2019-08-18 07:00:00 21.6 3 Noroeste 8 Sudoeste 0 927.1 -0.5 31
2019-08-18 06:00:00 22.6 5 Sur 9 Sur 0 927 -1.1 32
2019-08-18 05:00:00 23 5 Sudoeste 12 Sudoeste 0 927.1 -1 31
2019-08-18 04:00:00 23.9 7 Sur 13 Sudoeste 0 927.6 -0.2 30
2019-08-18 03:00:00 24.8 5 Sudoeste 19 Sudoeste 0 928.1 0.6 27
2019-08-18 02:00:00 25.9 9 Sudoeste 20 Sudoeste 0 928.1 0.7 24
2019-08-18 01:00:00 27.7 7 Sudoeste 16 Sur 0 927.8 0.7 18
2019-08-18 00:00:00 29.6 9 Oeste 14 Oeste 0 927.5 0.7 15
2019-08-17 23:00:00 30.3 9 Oeste 14 Oeste 0 927.4 0.7 14
2019-08-17 22:00:00 31.3 8 Oeste 13 Oeste 0 927.1 0.1 14
2019-08-17 21:00:00 33.4 6 Sudoeste 24 Oeste 0 926.8 -0.6 13
2019-08-17 20:00:00 37 10 Oeste 27 Oeste 0 926.7 -1.1 12
2019-08-17 19:00:00 37.8 7 Sur 27 Sudoeste 0 927 -1.4 11
2019-08-17 18:00:00 37.9 11 Sur 37 Sur 0 927.4 -1.7 11
2019-08-17 17:00:00 38 9 Oeste 32 Oeste 0 927.8 -1.7 12
2019-08-17 16:00:00 38.3 11 Sudoeste 29 Sudoeste 0 928.4 -1.6 12
2019-08-17 15:00:00 37.6 9 Sudoeste 25 Sudoeste 0 929.1 -1.5 12
2019-08-17 14:00:00 36.2 7 Sudeste 20 Sudoeste 0 929.5 -1.3 14
2019-08-17 13:00:00 34.2 8 Sudoeste 19 Sur 0 930 -0.8 18
2019-08-17 12:00:00 31.7 7 Sudoeste 17 Sur 0 930.6 -0.2 22
2019-08-17 11:00:00 29.1 6 Sudoeste 14 Sur 0 930.8 0.4 26
2019-08-17 10:00:00 25.8 6 Sudoeste 15 Sudoeste 0 930.8 0.8 31
2019-08-17 09:00:00 23.1 3 Sur 10 Sudoeste 0 930.8 0.8 38
2019-08-17 08:00:00 22.3 5 Sudoeste 10 Sudoeste 0 930.4 0.4 38
2019-08-17 07:00:00 22.6 4 Sudeste 15 Oeste 0 930 0 38
2019-08-17 06:00:00 23.1 9 Oeste 14 Oeste 0 930 -0.1 36
2019-08-17 05:00:00 22.9 5 Oeste 10 Oeste 0 930 -0.3 38
2019-08-17 04:00:00 23.7 4 Sur 10 Sudoeste 0 930 -0.1 35
2019-08-17 03:00:00 24.7 4 Sur 9 Sur 0 930.1 0.1 32
2019-08-17 02:00:00 26.4 3 Este 16 Sudoeste 0 930.3 0.4 26
2019-08-17 01:00:00 28.3 8 Oeste 23 Oeste 0 930.1 0.6 22
2019-08-17 00:00:00 28.8 10 Oeste 23 Oeste 0 930 1 20
2019-08-16 23:00:00 29.5 9 Oeste 17 Oeste 0 929.9 1.3 18
2019-08-16 22:00:00 30.5 9 Sudoeste 21 Sudoeste 0 929.5 0.9 17
2019-08-16 21:00:00 32.8 6 Sur 23 Sudoeste 0 929 0 14
2019-08-16 20:00:00 36.3 9 Sudoeste 27 Sur 0 928.6 -0.9 13
2019-08-16 19:00:00 37.4 8 Sudoeste 30 Sur 0 928.6 -1.4 12
2019-08-16 18:00:00 37.3 10 Sur 32 Sur 0 929 -1.6 13
2019-08-16 17:00:00 37.4 11 Sudoeste 28 Sudoeste 0 929.5 -1.4 13
2019-08-16 16:00:00 37.7 8 Sur 31 Sur 0 930 -1.3 14
2019-08-16 15:00:00 36.9 10 Sur 26 Sudoeste 0 930.6 -1 15
2019-08-16 14:00:00 34.9 9 Sur 23 Sur 0 930.9 -0.6 18
2019-08-16 13:00:00 32.9 8 Sudoeste 21 Sur 0 931.3 -0.3 22
2019-08-16 12:00:00 31 9 Sudoeste 24 Sur 0 931.6 0.1 25
2019-08-16 11:00:00 28.8 8 Sudoeste 20 Sudoeste 0 931.5 0.3 28
2019-08-16 10:00:00 25.9 6 Sudoeste 19 Sudoeste 0 931.6 0.8 34
2019-08-16 09:00:00 22.7 5 Oeste 10 Oeste 0 931.5 0.9 43
2019-08-16 08:00:00 21.6 3 Oeste 10 Oeste 0 931.2 0.6 43
2019-08-16 07:00:00 21.8 6 Oeste 13 Oeste 0 930.8 0.1 40
2019-08-16 06:00:00 21.9 5 Sudoeste 10 Sudoeste 0 930.6 -0.1 37
2019-08-16 05:00:00 22.2 3 Sudoeste 12 Sudoeste 0 930.6 -0.1 37
2019-08-16 04:00:00 23.1 5 Sudoeste 12 Sudoeste 0 930.7 0.2 33
2019-08-16 03:00:00 24.3 7 Sur 14 Sur 0 930.7 0.3 28
2019-08-16 02:00:00 26.4 3 Norte 14 Sudoeste 0 930.7 0.2 22
2019-08-16 01:00:00 28.3 10 Sudoeste 16 Oeste 0 930.5 0.4 21
2019-08-16 00:00:00 28.8 9 Oeste 17 Oeste 0 930.4 0.9 19
2019-08-15 23:00:00 28.5 4 Norte 12 Sudoeste 0 930.5 1.2 18
2019-08-15 22:00:00 29.9 5 Sur 13 Sur 0 930.1 1 16
2019-08-15 21:00:00 32.8 4 Sur 20 Sur 0 929.5 0.2 14
2019-08-15 20:00:00 36.3 6 Sur 24 Sur 0 929.3 -0.4 11
2019-08-15 19:00:00 36.9 8 Sur 22 Sur 0 929.1 -1.3 11
2019-08-15 18:00:00 37.1 8 Sur 26 Sur 0 929.3 -1.5 12
2019-08-15 17:00:00 36.9 10 Sur 31 Sur 0 929.7 -1.6 12
2019-08-15 16:00:00 37.2 10 Sur 27 Sur 0 930.4 -1.4 12
2019-08-15 15:00:00 36.1 10 Sur 31 Sur 0 930.8 -1.4 13
2019-08-15 14:00:00 34.6 9 Sur 27 Sur 0 931.3 -0.8 14
2019-08-15 13:00:00 33 8 Sur 19 Sur 0 931.8 -0.2 21
2019-08-15 12:00:00 30.5 8 Sur 16 Sur 0 932.2 0.4 22
2019-08-15 11:00:00 28.1 8 Sur 15 Sur 0 932.1 0.6 25
2019-08-15 10:00:00 24.7 4 Sur 10 Sudoeste 0 932 0.8 30
2019-08-15 09:00:00 21.6 3 Sudeste 5 Sudeste 0 931.8 0.9 31
2019-08-15 08:00:00 20.5 0 Calma 4 Norte 0 931.5 0.8 27
2019-08-15 07:00:00 20.9 2 Noroeste 5 Sur 0 931.2 0.3 26
2019-08-15 06:00:00 21.8 5 Sur 8 Sur 0 930.9 0 27
2019-08-15 05:00:00 22.7 0 Calma 5 Norte 0 930.7 -0.5 22
2019-08-15 04:00:00 23.6 0 Calma 11 Este 0 930.9 -0.3 21
2019-08-15 03:00:00 25.2 6 Sudeste 13 Este 0 930.9 -0.6 19
2019-08-15 02:00:00 26.4 10 Norte 19 Norte 0 931.2 -0.1 16
2019-08-15 01:00:00 26.3 3 Noroeste 14 Norte 0 931.2 0.4 17
2019-08-15 00:00:00 26.6 5 Norte 13 Oeste 0 931.5 1.1 18
2019-08-14 23:00:00 27.6 6 Oeste 12 Oeste 0 931.3 1.3 17
2019-08-14 22:00:00 28.3 4 Sur 10 Sur 0 930.8 0.7 18
2019-08-14 21:00:00 31.3 4 Sur 18 Sur 0 930.4 0.2 14
2019-08-14 20:00:00 34.7 8 Sur 23 Sur 0 930 -0.4 12
2019-08-14 19:00:00 35.3 8 Sur 26 Sudoeste 0 930.1 -0.8 12
2019-08-14 18:00:00 35.5 9 Sur 30 Sudoeste 0 930.2 -1.3 12
2019-08-14 17:00:00 35.8 12 Sur 34 Sur 0 930.4 -1.8 12
2019-08-14 16:00:00 35.5 11 Sur 39 Sur 0 930.9 -1.7 12
2019-08-14 15:00:00 34.3 12 Sur 30 Sudoeste 0 931.5 -1.5 14
2019-08-14 14:00:00 32.5 8 Sur 21 Sur 0 932.2 -0.9 17
2019-08-14 13:00:00 30.4 9 Sur 21 Sur 0 932.6 -0.3 23
2019-08-14 12:00:00 27.8 9 Sudoeste 21 Sudoeste 0 933 0.4 28
2019-08-14 11:00:00 25.3 9 Sudoeste 23 Sudoeste 0 933.1 0.9 37
2019-08-14 10:00:00 22.7 8 Sudoeste 18 Sudoeste 0 932.9 1.1 40
2019-08-14 09:00:00 19.7 6 Sudoeste 12 Sudoeste 0 932.6 1.1 46
2019-08-14 08:00:00 18.8 5 Sudoeste 11 Oeste 0 932.2 0.6 49
2019-08-14 07:00:00 18.7 4 Sur 5 Sur 0 931.8 0.3 51
2019-08-14 06:00:00 19.2 0 Calma 4 Norte 0 931.5 0.1 48
2019-08-14 05:00:00 20 0 Calma 5 Sudeste 0 931.6 0.1 38
2019-08-14 04:00:00 20.9 3 Este 12 Sudeste 0 931.5 0.3 30
2019-08-14 03:00:00 21.7 5 Nordeste 11 Este 0 931.4 0.3 25
2019-08-14 02:00:00 21.8 5 Nordeste 13 Este 0 931.5 0.5 24
2019-08-14 01:00:00 24.3 8 Este 14 Este 0 931.2 0.8 21
2019-08-14 00:00:00 24.7 6 Nordeste 9 Este 0 931.1 1.4 18
2019-08-13 23:00:00 25.3 2 Norte 9 Norte 0 931 1.8 18
2019-08-13 22:00:00 26.9 3 Noroeste 11 Sudoeste 0 930.4 1.2 15
2019-08-13 21:00:00 30 7 Sudoeste 13 Sudoeste 0 929.7 0.7 12
2019-08-13 20:00:00 33.6 5 Sur 20 Sur 0 929.2 -0.2 11
2019-08-13 19:00:00 34.1 5 Sudoeste 25 Sur 0 929.2 -0.8 11
2019-08-13 18:00:00 34 8 Sudeste 26 Sudoeste 0 929 -1.5 11
2019-08-13 17:00:00 34.1 6 Noroeste 24 Sudoeste 0 929.4 -1.4 13
2019-08-13 16:00:00 34.3 7 Sudoeste 26 Sur 0 930 -1 13
2019-08-13 15:00:00 32.6 8 Sur 26 Sur 0 930.5 -0.6 16
2019-08-13 14:00:00 31.9 6 Sudoeste 21 Sudoeste 0 930.8 -0.1 20
2019-08-13 13:00:00 30 8 Sudeste 25 Sur 0 931 0.1 24
2019-08-13 12:00:00 28.1 5 Sudoeste 21 Sudoeste 0 931.1 0.5 31
2019-08-13 11:00:00 25.9 6 Sudeste 17 Este 0 930.9 0.7 40
2019-08-13 10:00:00 23.1 5 Sudeste 14 Sur 0 930.9 1.3 48
2019-08-13 09:00:00 19.6 4 Norte 13 Nordeste 0 930.6 1.2 32
2019-08-13 08:00:00 19.1 6 Nordeste 9 Nordeste 0 930.2 0.9 26
2019-08-13 07:00:00 19.2 5 Nordeste 12 Nordeste 0 929.6 0.1 24
2019-08-13 06:00:00 19.8 5 Norte 15 Nordeste 0 929.4 -0.4 21
2019-08-13 05:00:00 20.5 6 Nordeste 23 Norte 0 929.3 -0.8 20
2019-08-13 04:00:00 20.7 8 Nordeste 26 Norte 0 929.5 -0.6 19
2019-08-13 03:00:00 21.7 15 Nordeste 29 Nordeste 0 929.8 -0.4 17
2019-08-13 02:00:00 21.9 13 Norte 23 Nordeste 0 930.1 0 17
2019-08-13 01:00:00 22.6 13 Nordeste 28 Nordeste 0 930.1 0.8 16
2019-08-13 00:00:00 22.9 10 Norte 28 Norte 0 930.2 1.6 16
2019-08-12 23:00:00 23.6 15 Norte 35 Norte 0 930.1 2.2 15
2019-08-12 22:00:00 24.2 19 Norte 37 Norte 0 929.3 1.4 14
2019-08-12 21:00:00 25.6 15 Norte 41 Norte 0 928.6 0.7 14
2019-08-12 20:00:00 28.3 18 Norte 36 Norte 0 927.9 -0.4 12
2019-08-12 19:00:00 29.9 18 Norte 34 Norte 0 927.9 -1.1 10
2019-08-12 18:00:00 30.7 13 Norte 35 Norte 0 927.9 -1.6 10
2019-08-12 17:00:00 30.2 11 Norte 36 Norte 0 928.3 -1.7 11
2019-08-12 16:00:00 30.6 14 Noroeste 35 Norte 0 929 -1.3 11
2019-08-12 15:00:00 28.5 14 Nordeste 36 Norte 0 929.5 -1.1 13
2019-08-12 14:00:00 27.8 9 Nordeste 33 Norte 0 930 -0.4 15
2019-08-12 13:00:00 25.5 18 Norte 33 Norte 0 930.3 0.4 18
2019-08-12 12:00:00 23.7 18 Norte 35 Norte 0 930.6 0.9 23
2019-08-12 11:00:00 22.4 17 Norte 38 Nordeste 0 930.4 1.1 23
2019-08-12 10:00:00 20 18 Nordeste 34 Norte 0 929.9 0.9 27
2019-08-12 09:00:00 18.7 12 Norte 28 Norte 0 929.7 1 27
2019-08-12 08:00:00 18 10 Norte 21 Norte 0 929.3 0.3 28
2019-08-12 07:00:00 17.9 7 Norte 15 Norte 0 929 -0.1 28
2019-08-12 06:00:00 18.3 6 Norte 9 Nordeste 0 928.7 -1 27
2019-08-12 05:00:00 18.5 5 Nordeste 10 Noroeste 0 929 -0.8 26
2019-08-12 04:00:00 19.5 5 Noroeste 8 Noroeste 0 929.1 -0.9 23
2019-08-12 03:00:00 20.2 5 Norte 20 Norte 0 929.7 -0.1 22
2019-08-12 02:00:00 20.3 12 Norte 23 Nordeste 0 929.8 0.1 23
2019-08-12 01:00:00 20.7 12 Norte 17 Norte 0 930 0.9 24
2019-08-12 00:00:00 22 6 Nordeste 13 Noroeste 0 929.8 1.3 21
2019-08-11 23:00:00 23.4 8 Noroeste 24 Oeste 0 929.7 1.7 18
2019-08-11 22:00:00 24.7 15 Noroeste 24 Noroeste 0 929.1 1.1 15
2019-08-11 21:00:00 26.8 15 Noroeste 25 Oeste 0 928.5 0.4 15
2019-08-11 20:00:00 29.9 17 Noroeste 32 Noroeste 0 928 -0.6 12
2019-08-11 19:00:00 32.1 17 Noroeste 32 Noroeste 0 928 -1 11
2019-08-11 18:00:00 32.2 11 Oeste 33 Oeste 0 928.1 -1.4 11
2019-08-11 17:00:00 33.9 12 Sudoeste 32 Sudoeste 0 928.6 -1.3 10
2019-08-11 16:00:00 33.6 11 Sudoeste 32 Sur 0 929 -1.2 13
2019-08-11 15:00:00 32.1 10 Sur 33 Sur 0 929.5 -0.9 16
2019-08-11 14:00:00 30.9 11 Sur 34 Sur 0 929.9 -0.2 19
2019-08-11 13:00:00 30.3 8 Sur 25 Sur 0 930.2 0.1 20
2019-08-11 12:00:00 27.4 9 Sur 22 Sur 0 930.4 0.2 24
2019-08-11 11:00:00 26.2 5 Sudeste 13 Sudeste 0 930.1 0.2 29
2019-08-11 10:00:00 22.3 4 Sudeste 12 Sudeste 0 930.1 0.6 40
2019-08-11 09:00:00 19.2 4 Este 18 Este 0 930.2 1.3 50
2019-08-11 08:00:00 18.4 7 Este 12 Este 0 929.9 1.1 53
2019-08-11 07:00:00 18.8 2 Norte 9 Sur 0 929.5 0.9 52
2019-08-11 06:00:00 19.8 3 Sur 13 Sudoeste 0 928.9 -0.1 51
2019-08-11 05:00:00 20.8 5 Sur 13 Sudoeste 0 928.8 -0.7 50
2019-08-11 04:00:00 22 4 Sur 13 Sudoeste 0 928.6 -1 47
2019-08-11 03:00:00 23.1 7 Sudoeste 18 Sudoeste 0 929 -0.8 45
2019-08-11 02:00:00 24.7 6 Sur 13 Sudoeste 0 929.5 -0.3 38
2019-08-11 01:00:00 25.7 9 Sudoeste 15 Oeste 0 929.6 0.3 33
2019-08-11 00:00:00 26.4 7 Sudoeste 13 Oeste 0 929.8 0.9 33
2019-08-10 23:00:00 27.2 6 Oeste 12 Sudoeste 0 929.8 1 33
2019-08-10 22:00:00 28.6 6 Sudoeste 15 Sudoeste 0 929.3 0.3 29
2019-08-10 21:00:00 31.2 5 Sudoeste 22 Sudoeste 0 928.9 -0.4 22
2019-08-10 20:00:00 34.1 8 Sur 30 Sur 0 928.8 -1.1 18
2019-08-10 19:00:00 35 11 Sur 31 Sudoeste 0 929 -1.6 17
2019-08-10 18:00:00 35.2 10 Sudoeste 28 Sur 0 929.3 -1.9 18
2019-08-10 17:00:00 35.4 8 Sur 36 Sudoeste 0 929.9 -1.8 19
2019-08-10 16:00:00 34.8 12 Sudoeste 28 Sur 0 930.6 -1.5 21
2019-08-10 15:00:00 34 9 Sur 26 Sur 0 931.2 -1.2 25
2019-08-10 14:00:00 32.1 10 Sur 23 Sur 0 931.7 -0.5 33
2019-08-10 13:00:00 30.7 8 Sur 19 Sudoeste 0 932.1 -0.1 36
2019-08-10 12:00:00 28.6 6 Sudoeste 17 Sur 0 932.4 0.4 42
2019-08-10 11:00:00 26.5 5 Este 16 Sudeste 0 932.2 0.2 49
2019-08-10 10:00:00 23.3 4 Nordeste 24 Nordeste 0 932.2 0.7 59
2019-08-10 09:00:00 20.6 9 Nordeste 22 Nordeste 0 932 0.7 68
2019-08-10 08:00:00 19.6 9 Nordeste 18 Nordeste 0 932 1 72
2019-08-10 07:00:00 19.6 4 Norte 7 Sudeste 0 931.5 0.5 67
2019-08-10 06:00:00 20.9 2 Nordeste 7 Este 0 931.3 0.2 61
2019-08-10 05:00:00 21.7 2 Norte 6 Este 0 931 -0.1 59
2019-08-10 04:00:00 22.6 5 Este 8 Este 0 931 -0.2 52
2019-08-10 03:00:00 23.4 3 Nordeste 12 Nordeste 0 931.1 0.2 58
2019-08-10 02:00:00 24.3 4 Nordeste 11 Nordeste 0 931.1 0.3 48
2019-08-10 01:00:00 25.4 3 Norte 11 Oeste 0 931.2 1.2 36
2019-08-10 00:00:00 26.3 8 Sudoeste 13 Sudoeste 0 930.9 1.4 31
2019-08-09 23:00:00 27.2 6 Sudoeste 17 Sudoeste 0 930.8 1.8 29
2019-08-09 22:00:00 28.3 7 Sudoeste 23 Sudoeste 0 930 0.9 28
2019-08-09 21:00:00 30.7 9 Sudoeste 30 Sur 0 929.5 0.2 25
2019-08-09 20:00:00 34.2 10 Sudoeste 35 Sur 0 929 -0.5 19
2019-08-09 19:00:00 35 11 Sur 32 Sudoeste 0 929.1 -1 18
2019-08-09 18:00:00 35 13 Sudoeste 32 Sur 0 929.3 -1.2 19
2019-08-09 17:00:00 35.6 11 Sur 34 Sudoeste 0 929.5 -1.3 17
2019-08-09 16:00:00 35.1 12 Sur 33 Sur 0 930.1 -1 20
2019-08-09 15:00:00 34 12 Sur 24 Sudoeste 0 930.5 -0.6 23
2019-08-09 14:00:00 32.4 8 Sudoeste 30 Sudoeste 0 930.8 0 24
2019-08-09 13:00:00 30.9 9 Sur 24 Sudoeste 0 931.1 0.3 28
2019-08-09 12:00:00 28.7 7 Sur 18 Sur 0 931.1 0.6 31
2019-08-09 11:00:00 26.4 7 Sur 16 Sudeste 0 930.8 0.5 35
2019-08-09 10:00:00 23.2 5 Sur 10 Sudeste 0 930.8 0.8 41
2019-08-09 09:00:00 19.6 3 Norte 8 Norte 0 930.5 0.9 49
2019-08-09 08:00:00 18.2 3 Sudeste 6 Norte 0 930.3 0.5 52
2019-08-09 07:00:00 18.9 4 Sudeste 10 Sudeste 0 930 0.5 50
2019-08-09 06:00:00 19.6 5 Sudeste 12 Sudoeste 0 929.6 0.2 48
2019-08-09 05:00:00 20.2 4 Sur 12 Sur 0 929.8 0.6 45
2019-08-09 04:00:00 21.2 3 Sur 10 Sur 0 929.5 0.7 40
2019-08-09 03:00:00 22.7 6 Sur 14 Sur 0 929.4 0.9 33
2019-08-09 02:00:00 24.4 6 Sudeste 13 Sudoeste 0 929.2 0.8 23
2019-08-09 01:00:00 25.8 7 Oeste 14 Oeste 0 928.8 0.8 21
2019-08-09 00:00:00 26.9 9 Sudoeste 15 Oeste 0 928.5 1 18
2019-08-08 23:00:00 27.6 6 Sudoeste 12 Sudoeste 0 928.4 1.2 14
2019-08-08 22:00:00 29.1 6 Sudoeste 19 Sudoeste 0 928 0.6 15
2019-08-08 21:00:00 32.3 5 Sur 24 Sudoeste 0 927.5 0.2 12
2019-08-08 20:00:00 35.9 13 Sudoeste 30 Sudoeste 0 927.2 -0.3 9
2019-08-08 19:00:00 36.2 10 Sudoeste 39 Sudoeste 0 927.4 -0.6 10
2019-08-08 18:00:00 36.2 10 Sur 34 Sur 0 927.3 -1.1 11
2019-08-08 17:00:00 36.6 10 Sur 35 Sudoeste 0 927.5 -1.3 12
2019-08-08 16:00:00 36.6 10 Sur 34 Sur 0 928 -1.4 13
2019-08-08 15:00:00 35.5 9 Sur 24 Sudoeste 0 928.4 -1.1 15
2019-08-08 14:00:00 33.9 8 Sur 24 Sudeste 0 928.8 -0.4 14
2019-08-08 13:00:00 32.4 9 Sur 24 Sudoeste 0 929.4 0.3 20
2019-08-08 12:00:00 30.8 7 Sudeste 19 Sur 0 929.5 0.6 21
2019-08-08 11:00:00 28.1 4 Sur 13 Sudeste 0 929.2 0.5 25
2019-08-08 10:00:00 25.4 6 Sur 14 Sudeste 0 929.1 0.6 31
2019-08-08 09:00:00 22.1 2 Norte 6 Nordeste 0 928.9 0.5 37
2019-08-08 08:00:00 21.2 3 Nordeste 8 Nordeste 0 928.7 0.4 39
2019-08-08 07:00:00 21.5 3 Nordeste 5 Nordeste 0 928.5 0.1 36
2019-08-08 06:00:00 21.7 2 Norte 4 Nordeste 0 928.4 0 36
2019-08-08 05:00:00 22.4 3 Noroeste 8 Nordeste 0 928.3 -0.2 35
2019-08-08 04:00:00 22.5 4 Nordeste 9 Este 0 928.4 -0.3 35
2019-08-08 03:00:00 23.5 3 Nordeste 13 Nordeste 0 928.4 -0.2 33
2019-08-08 02:00:00 23.9 6 Nordeste 15 Nordeste 0 928.5 -0.1 32
2019-08-08 01:00:00 24.3 9 Nordeste 15 Nordeste 0 928.7 0.9 32
2019-08-08 00:00:00 25.1 8 Nordeste 15 Nordeste 0 928.6 1.3 29
2019-08-07 23:00:00 26.1 4 Noroeste 9 Noroeste 0 928.6 1.3 27
2019-08-07 22:00:00 27 6 Nordeste 15 Nordeste 0 927.8 0.5 25
2019-08-07 21:00:00 28.1 5 Norte 22 Noroeste 0 927.3 -0.1 22
2019-08-07 20:00:00 29.9 10 Oeste 22 Sur 0 927.3 0 19
2019-08-07 19:00:00 31.4 8 Sur 20 Sur 0 927.3 -0.2 21
2019-08-07 18:00:00 31.9 5 Sur 24 Sudoeste 0 927.4 -0.4 20
2019-08-07 17:00:00 32 8 Sur 26 Sur 0 927.3 -0.8 20
2019-08-07 16:00:00 32.7 9 Sudeste 32 Sur 0 927.5 -0.8 20
2019-08-07 15:00:00 33.8 10 Sur 24 Sur 0 927.8 -0.6 19
2019-08-07 14:00:00 33.1 8 Sur 23 Sur 0 928.1 -0.1 17
2019-08-07 13:00:00 32.1 9 Sudoeste 27 Sudoeste 0 928.3 0.3 18
2019-08-07 12:00:00 29.2 10 Sur 22 Sur 0 928.4 0.9 23
2019-08-07 11:00:00 28 6 Sur 14 Sur 0 928.2 1.1 22
2019-08-07 10:00:00 24.2 4 Sudeste 9 Sudeste 0 928 1.4 25
2019-08-07 09:00:00 21 0 Calma 6 Nordeste 0 927.5 1 30
2019-08-07 08:00:00 19.2 2 Norte 5 Noroeste 0 927.1 0.7 28
2019-08-07 07:00:00 19.7 3 Norte 10 Este 0 926.6 0.3 27
2019-08-07 06:00:00 20.4 3 Sur 10 Sudeste 0 926.5 0 28
2019-08-07 05:00:00 21.4 3 Norte 10 Sur 0 926.4 -0.3 27
2019-08-07 04:00:00 21.7 4 Oeste 10 Sudoeste 0 926.3 -0.7 26
2019-08-07 03:00:00 22.3 4 Sudoeste 14 Sur 0 926.5 -0.4 23
2019-08-07 02:00:00 23.9 7 Sur 14 Sur 0 926.7 0.2 18
2019-08-07 01:00:00 25.5 9 Sudoeste 18 Oeste 0 927 1.1 14
2019-08-07 00:00:00 26.8 10 Oeste 18 Sudoeste 0 926.9 1.4 10
2019-08-06 23:00:00 27.6 10 Sudoeste 18 Sudoeste 0 926.5 1.3 9
2019-08-06 22:00:00 28.9 5 Oeste 16 Sudoeste 0 925.9 0.5 9
2019-08-06 21:00:00 31.7 8 Sudoeste 27 Sudoeste 0 925.5 -0.3 8
2019-08-06 20:00:00 36.8 8 Sudoeste 29 Sudoeste 0 925.2 -0.9 7
2019-08-06 19:00:00 36.9 13 Sudoeste 32 Sudoeste 0 925.4 -1.7 7
2019-08-06 18:00:00 36.9 12 Sudoeste 37 Sudoeste 0 925.8 -1.7 7
2019-08-06 17:00:00 37.4 10 Sudoeste 36 Sur 0 926.1 -2 8
2019-08-06 16:00:00 36.9 10 Sudoeste 30 Sur 0 927.1 -1.5 9
2019-08-06 15:00:00 35.5 7 Sur 29 Sudoeste 0 927.5 -1.3 11
2019-08-06 14:00:00 34 9 Sur 26 Sudoeste 0 928.1 -0.7 13
2019-08-06 13:00:00 32.7 9 Sur 26 Sudoeste 0 928.6 0 14
2019-08-06 12:00:00 30.8 7 Sur 19 Sur 0 928.8 0 18
2019-08-06 11:00:00 28.3 7 Sudeste 16 Sur 0 928.8 0.5 24
2019-08-06 10:00:00 23.9 4 Noroeste 8 Norte 0 928.6 0.3 31
2019-08-06 09:00:00 20.6 3 Sudeste 10 Sudeste 0 928.8 0.7 40
2019-08-06 08:00:00 19.1 4 Norte 9 Sudeste 0 928.3 0 38
2019-08-06 07:00:00 19.9 6 Sudeste 8 Sudeste 0 928.3 0 40
2019-08-06 06:00:00 20.3 2 Nordeste 6 Sur 0 928.1 -0.1 31
2019-08-06 05:00:00 21.4 5 Sudeste 8 Sudeste 0 928.3 0.1 34
2019-08-06 04:00:00 22.3 3 Sudeste 10 Sudeste 0 928.3 0.4 31
2019-08-06 03:00:00 23.4 3 Sudeste 17 Sudoeste 0 928.2 0.5 25
2019-08-06 02:00:00 25 9 Sudoeste 20 Oeste 0 928.2 0.7 16
2019-08-06 01:00:00 26.4 12 Sudoeste 22 Sudoeste 0 927.9 1 14
2019-08-06 00:00:00 27.3 10 Sudoeste 19 Sudoeste 0 927.7 1.3 14
2019-08-05 23:00:00 28.4 10 Sudoeste 22 Sudoeste 0 927.5 1.5 15
2019-08-05 22:00:00 30.2 10 Sudoeste 19 Sudoeste 0 926.9 0.9 16
2019-08-05 21:00:00 33.2 9 Sudoeste 26 Sudoeste 0 926.4 0.4 13
2019-08-05 20:00:00 36.6 12 Sudoeste 33 Oeste 0 926 -0.4 11
2019-08-05 19:00:00 37.4 14 Sudoeste 32 Sudoeste 0 926 -0.9 12
2019-08-05 18:00:00 37.9 9 Sur 32 Sur 0 926 -1.4 13
2019-08-05 17:00:00 37.9 10 Sur 30 Sur 0 926.4 -1.7 12
2019-08-05 16:00:00 38 9 Sudoeste 27 Sur 0 926.9 -1.9 13
2019-08-05 15:00:00 36.9 9 Sur 23 Sur 0 927.4 -1.7 15
2019-08-05 14:00:00 35.6 8 Sur 25 Sudoeste 0 928.1 -0.9 14
2019-08-05 13:00:00 34.3 6 Sudoeste 19 Sur 0 928.8 -0.4 15
2019-08-05 12:00:00 31.9 6 Sur 15 Sudeste 0 929.1 -0.1 18
2019-08-05 11:00:00 29.2 4 Sur 11 Sur 0 929 0.1 23
2019-08-05 10:00:00 24.6 4 Norte 9 Noroeste 0 929.2 0.5 34
2019-08-05 09:00:00 20.8 2 Norte 8 Noroeste 0 929.2 0.5 41
2019-08-05 08:00:00 19.9 4 Este 8 Este 0 928.9 0.1 46
2019-08-05 07:00:00 20.2 3 Nordeste 6 Nordeste 0 928.7 -0.1 44
2019-08-05 06:00:00 20.4 3 Norte 10 Este 0 928.7 -0.3 31
2019-08-05 05:00:00 21.9 6 Sudeste 8 Sudeste 0 928.8 -0.5 31
2019-08-05 04:00:00 22.8 5 Sur 7 Sudeste 0 928.8 -0.3 30
2019-08-05 03:00:00 23.8 3 Sudoeste 9 Sur 0 929 0.1 25
2019-08-05 02:00:00 25.3 4 Sur 12 Sudoeste 0 929.3 0.8 22
2019-08-05 01:00:00 26.8 9 Sudoeste 16 Oeste 0 929.1 1.2 20
2019-08-05 00:00:00 27.4 10 Oeste 17 Oeste 0 928.9 1.5 22
2019-08-04 23:00:00 28.1 10 Oeste 17 Oeste 0 928.5 1.5 21
2019-08-04 22:00:00 29.4 10 Sudoeste 21 Sudoeste 0 927.9 1.1 18
2019-08-04 21:00:00 32.3 11 Sudoeste 31 Sudoeste 0 927.4 0.5 15
2019-08-04 20:00:00 36 9 Sur 28 Sur 0 927 -0.1 13
2019-08-04 19:00:00 37.2 7 Sur 28 Sur 0 926.8 -0.9 13
2019-08-04 18:00:00 37.3 10 Sur 32 Sudoeste 0 926.9 -1.3 12
2019-08-04 17:00:00 37.2 9 Sur 24 Sur 0 927.1 -1.6 12
2019-08-04 16:00:00 36.7 8 Sur 25 Sur 0 927.7 -1.6 13
2019-08-04 15:00:00 35.9 9 Sur 26 Sudoeste 0 928.2 -1.3 15
2019-08-04 14:00:00 33.8 7 Sur 23 Sur 0 928.7 -0.8 16
2019-08-04 13:00:00 32 7 Sur 18 Sur 0 929.3 -0.2 18
2019-08-04 12:00:00 29.9 6 Sudoeste 15 Sur 0 929.5 0.2 22
2019-08-04 11:00:00 27.5 6 Sur 15 Sudeste 0 929.5 0.5 27
2019-08-04 10:00:00 24.3 5 Sur 12 Sur 0 929.5 0.8 34
2019-08-04 09:00:00 21.3 3 Sur 8 Sur 0 929.3 0.6 41
2019-08-04 08:00:00 19.4 3 Norte 6 Sudeste 0 929 0.4 38
2019-08-04 07:00:00 19.5 0 Calma 8 Sur 0 928.7 0.1 36
2019-08-04 06:00:00 20.4 5 Sur 8 Sur 0 928.7 0.2 40
2019-08-04 05:00:00 21 3 Sudoeste 12 Sur 0 928.6 0.2 37
2019-08-04 04:00:00 22 5 Sudoeste 9 Sudoeste 0 928.6 0.5 31
2019-08-04 03:00:00 23 4 Sur 12 Sudoeste 0 928.5 0.5 27
2019-08-04 02:00:00 23.9 5 Sudoeste 11 Sudoeste 0 928.4 0.9 26
2019-08-04 01:00:00 25.3 8 Sudoeste 14 Sudoeste 0 928.1 1.2 23
2019-08-04 00:00:00 26.5 7 Sur 18 Sudoeste 0 928 1.7 22
2019-08-03 23:00:00 27.7 10 Sudoeste 18 Sudoeste 0 927.5 1.3 20
2019-08-03 22:00:00 29.7 8 Sudoeste 18 Sudoeste 0 926.9 0.7 15
2019-08-03 21:00:00 32.7 8 Sudoeste 25 Sudoeste 0 926.3 -0.3 13
2019-08-03 20:00:00 37 7 Sudoeste 27 Sur 0 926.2 -0.9 10
2019-08-03 19:00:00 37.6 9 Sudoeste 27 Sudoeste 0 926.2 -1.4 10
2019-08-03 18:00:00 37.3 10 Sudoeste 28 Sudoeste 0 926.6 -1.4 11
2019-08-03 17:00:00 37.3 11 Sudoeste 27 Sur 0 927.1 -1.2 12
2019-08-03 16:00:00 37.7 7 Sur 27 Sur 0 927.6 -0.9 12
2019-08-03 15:00:00 36.4 9 Sudoeste 26 Sudoeste 0 928 -0.8 12
2019-08-03 14:00:00 34.9 8 Sur 30 Sur 0 928.3 -0.7 13
2019-08-03 13:00:00 33.7 8 Sur 21 Sur 0 928.5 -0.5 14
2019-08-03 12:00:00 31.1 6 Sur 16 Sudeste 0 928.8 -0.1 18
2019-08-03 11:00:00 28.1 5 Sur 13 Sur 0 929 0.4 23
2019-08-03 10:00:00 24.8 5 Sudoeste 12 Sur 0 929 1 29
2019-08-03 09:00:00 21.8 6 Sur 15 Sudoeste 0 928.9 1.1 33
2019-08-03 08:00:00 20.4 0 Calma 8 Sur 0 928.6 0.7 32
2019-08-03 07:00:00 20.5 2 Nordeste 6 Noroeste 0 928 0.2 29
2019-08-03 06:00:00 20.7 5 Norte 8 Sur 0 927.8 -0.2 29
2019-08-03 05:00:00 21.3 4 Sur 10 Sur 0 927.9 -0.2 29
2019-08-03 04:00:00 22.3 4 Sudoeste 8 Sudoeste 0 927.8 -0.3 27
2019-08-03 03:00:00 23 2 Norte 13 Sur 0 928 0.1 25
2019-08-03 02:00:00 25.1 6 Sur 13 Sudoeste 0 928.1 0.3 21
2019-08-03 01:00:00 26.5 9 Sudoeste 18 Sudoeste 0 928.1 0.8 18
2019-08-03 00:00:00 27.5 10 Sudoeste 19 Sudoeste 0 927.9 1.1 16
2019-08-02 23:00:00 28.5 11 Oeste 19 Sudoeste 0 927.8 1.2 15
2019-08-02 22:00:00 30 10 Sudoeste 21 Sudoeste 0 927.3 0.8 13
2019-08-02 21:00:00 33.1 9 Sudoeste 27 Sur 0 926.8 0 11
2019-08-02 20:00:00 36.7 10 Sur 28 Sudoeste 0 926.6 -0.3 9
2019-08-02 19:00:00 37.6 10 Sur 29 Sudoeste 0 926.5 -0.9 10
2019-08-02 18:00:00 37.8 9 Sur 28 Sur 0 926.8 -0.9 11
2019-08-02 17:00:00 37.8 9 Sur 35 Sur 0 926.9 -1.3 11
2019-08-02 16:00:00 37.6 9 Sur 28 Sudoeste 0 927.4 -1.2 12
2019-08-02 15:00:00 36.8 9 Sur 21 Sudoeste 0 927.7 -1.1 14
2019-08-02 14:00:00 35.3 8 Sur 22 Sur 0 928.2 -0.7 15
2019-08-02 13:00:00 34 6 Sur 19 Sur 0 928.6 -0.4 17
2019-08-02 12:00:00 31.6 7 Sudeste 14 Sur 0 928.8 0.1 21
2019-08-02 11:00:00 28.6 5 Sudeste 14 Sudeste 0 928.9 0.7 29
2019-08-02 10:00:00 24.7 3 Noroeste 11 Este 0 929 0.8 39
2019-08-02 09:00:00 21.1 4 Norte 8 Nordeste 0 928.7 0.8 41
2019-08-02 08:00:00 20 4 Norte 7 Norte 0 928.2 0.3 46
2019-08-02 07:00:00 20.2 2 Norte 7 Nordeste 0 928.2 0.5 44
2019-08-02 06:00:00 21 3 Nordeste 9 Este 0 927.9 0.2 34
2019-08-02 05:00:00 21.9 3 Norte 8 Nordeste 0 927.9 0.2 33
2019-08-02 04:00:00 23.1 4 Norte 9 Sudeste 0 927.7 -0.1 41
2019-08-02 03:00:00 24.5 6 Sudeste 10 Sur 0 927.7 -0.2 32
2019-08-02 02:00:00 25.1 4 Nordeste 10 Este 0 927.7 0.2 30
2019-08-02 01:00:00 25.8 4 Noroeste 13 Oeste 0 927.8 1.3 35
2019-08-02 00:00:00 27 8 Sudoeste 13 Oeste 0 927.9 2 32
2019-08-01 23:00:00 27.8 6 Sudoeste 15 Sudoeste 0 927.5 1.9 30
2019-08-01 22:00:00 29 9 Sudoeste 19 Sudoeste 0 926.5 1.2 28
2019-08-01 21:00:00 31.7 6 Sur 23 Sudoeste 0 925.9 0.5 25
2019-08-01 20:00:00 35.1 7 Sudoeste 24 Sur 0 925.6 -0.2 20
2019-08-01 19:00:00 35.5 10 Sur 26 Sudoeste 0 925.3 -1 20
2019-08-01 18:00:00 35.7 9 Sudoeste 26 Sudoeste 0 925.4 -1.2 20
2019-08-01 17:00:00 35.2 11 Sur 29 Sur 0 925.8 -1.2 21
2019-08-01 16:00:00 35.1 10 Sur 29 Sur 0 926.3 -1.1 23
2019-08-01 15:00:00 33.6 12 Sur 26 Sudoeste 0 926.6 -1.1 25
2019-08-01 14:00:00 32.7 8 Sur 24 Sur 0 927 -0.6 27
2019-08-01 13:00:00 30.4 6 Sudoeste 23 Sudoeste 0 927.4 -0.2 31
2019-08-01 12:00:00 28 8 Sudoeste 19 Sudoeste 0 927.7 0.5 39
2019-08-01 11:00:00 25.5 10 Sudoeste 26 Sudoeste 0 927.6 0.6 47
2019-08-01 10:00:00 22.8 9 Sudoeste 19 Oeste 0 927.6 0.7 60
2019-08-01 09:00:00 20.5 7 Sudoeste 20 Sudoeste 0 927.2 0.3 73
2019-08-01 08:00:00 19.7 4 Sur 14 Sudoeste 0 927 0.3 74
2019-08-01 07:00:00 19.9 4 Sur 18 Sudoeste 0 926.9 0.4 72
2019-08-01 06:00:00 20.5 7 Sudoeste 21 Sudoeste 0 926.9 0.6 70
2019-08-01 05:00:00 21.3 9 Sudoeste 22 Sudoeste 0 926.7 0.4 65
2019-08-01 04:00:00 22.1 9 Sudoeste 28 Sudoeste 0 926.5 0.2 59
2019-08-01 03:00:00 23.2 12 Sudoeste 34 Sudoeste 0 926.3 0.4 55
2019-08-01 02:00:00 24.4 11 Sudoeste 23 Sur 0 926.3 0.7 47
2019-08-01 01:00:00 25.6 5 Sur 24 Sur 0 926.3 1.5 41
2019-08-01 00:00:00 27 10 Sur 24 Sur 0 925.9 1.6 32
2019-07-31 23:00:00 28.6 7 Sur 15 Sur 0 925.6 1.4 25
2019-07-31 22:00:00 30.6 8 Sudoeste 15 Sudoeste 0 924.8 0.5 22
2019-07-31 21:00:00 33.6 4 Sudeste 11 Sudeste 0 924.3 -0.5 19
2019-07-31 20:00:00 36.7 4 Sudeste 17 Sudeste 0 924.2 -1 15
2019-07-31 19:00:00 36.9 7 Sudeste 21 Oeste 0 924.3 -1.6 15
2019-07-31 18:00:00 36.7 8 Sur 23 Sur 0 924.8 -1.6 15
2019-07-31 17:00:00 36.5 5 Sur 24 Sudeste 0 925.2 -1.7 15
2019-07-31 16:00:00 36.1 8 Sudeste 23 Este 0 925.9 -1.5 15
2019-07-31 15:00:00 35.5 8 Sur 26 Sudeste 0 926.4 -1.3 15
2019-07-31 14:00:00 33.6 8 Sudeste 25 Sudeste 0 926.9 -0.5 19
2019-07-31 13:00:00 32.4 8 Sudeste 23 Sur 0 927.4 0.1 21
2019-07-31 12:00:00 30.6 10 Sur 28 Sur 0 927.7 0.6 25
2019-07-31 11:00:00 28.3 9 Sur 22 Sur 0 927.4 0.8 29
2019-07-31 10:00:00 26 3 Sudeste 13 Este 0 927.3 1.3 36
2019-07-31 09:00:00 22.6 2 Nordeste 5 Sur 0 927.1 0.6 37
2019-07-31 08:00:00 21.8 5 Sur 8 Sur 0 926.6 -0.4 40
2019-07-31 07:00:00 21.1 7 Noroeste 10 Noroeste 0 926 -0.5 36
2019-07-31 06:00:00 21.7 3 Norte 9 Este 0 926.5 0.1 22
2019-07-31 05:00:00 22.5 5 Este 10 Este 0 927 0.4 22
2019-07-31 04:00:00 23.5 4 Este 10 Nordeste 0 926.5 -0.2 21
2019-07-31 03:00:00 24.2 6 Nordeste 16 Nordeste 0 926.4 -0.3 19
2019-07-31 02:00:00 24.7 5 Nordeste 15 Nordeste 0 926.6 0 21
2019-07-31 01:00:00 25.7 7 Nordeste 13 Norte 0 926.7 0.7 20
2019-07-31 00:00:00 26.4 9 Norte 17 Nordeste 0 926.7 1.3 20
2019-07-30 23:00:00 27.6 7 Norte 17 Norte 0 926.6 1.4 18
2019-07-30 22:00:00 29.6 6 Sudoeste 13 Sudoeste 0 926 0.9 13
2019-07-30 21:00:00 33 7 Sudoeste 16 Sur 0 925.4 -0.1 11
2019-07-30 20:00:00 36.6 6 Sudoeste 22 Sudoeste 0 925.2 -0.9 9
2019-07-30 19:00:00 37.4 7 Sudoeste 17 Sudoeste 0 925.1 -1.4 8
2019-07-30 18:00:00 37 6 Sudeste 22 Sudoeste 0 925.5 -1.4 9
2019-07-30 17:00:00 36.5 8 Sur 29 Sur 0 926.1 -1.4 10
2019-07-30 16:00:00 36.4 8 Sudeste 25 Sudoeste 0 926.5 -1.4 10
2019-07-30 15:00:00 34.8 7 Sudoeste 19 Sudoeste 0 926.9 -1.2 13
2019-07-30 14:00:00 33.2 3 Oeste 17 Sudeste 0 927.5 -0.7 14
2019-07-30 13:00:00 32.3 6 Sur 21 Sur 0 927.9 -0.5 15
2019-07-30 12:00:00 30.3 6 Sur 17 Sudeste 0 928.1 -0.1 17
2019-07-30 11:00:00 27.2 5 Noroeste 18 Nordeste 0 928.2 0.4 20
2019-07-30 10:00:00 23.7 13 Norte 23 Norte 0 928.4 0.9 25
2019-07-30 09:00:00 21.1 12 Norte 27 Nordeste 0 928.2 0.9 29
2019-07-30 08:00:00 19.8 12 Nordeste 20 Nordeste 0 927.8 0.6 35
2019-07-30 07:00:00 19.4 6 Nordeste 14 Nordeste 0 927.5 0.4 37
2019-07-30 06:00:00 20.3 7 Nordeste 12 Nordeste 0 927.3 0.2 34
2019-07-30 05:00:00 21.2 4 Nordeste 9 Nordeste 0 927.2 0.2 34
2019-07-30 04:00:00 22 2 Sur 6 Norte 0 927.1 0.1 34
2019-07-30 03:00:00 22.9 5 Sudeste 17 Norte 0 927.1 0.2 32
2019-07-30 02:00:00 23.8 11 Norte 19 Nordeste 0 927 0.4 32
2019-07-30 01:00:00 24.5 10 Norte 21 Norte 0 927 1.2 29
2019-07-30 00:00:00 25.2 12 Noroeste 26 Noroeste 0 926.9 1.7 27
2019-07-29 23:00:00 26.2 6 Noroeste 23 Oeste 0 926.6 1.9 21
2019-07-29 22:00:00 27.8 13 Noroeste 23 Noroeste 0 925.8 1.2 15
2019-07-29 21:00:00 30.6 13 Noroeste 30 Sudoeste 0 925.2 0.3 12
2019-07-29 20:00:00 33.5 12 Sur 29 Sur 0 924.7 -0.4 18
2019-07-29 19:00:00 34.3 11 Sur 33 Sudoeste 0 924.6 -1 19
2019-07-29 18:00:00 34.3 11 Sur 28 Sudoeste 0 924.9 -1 20
2019-07-29 17:00:00 34.4 10 Sudoeste 33 Sudeste 0 925.1 -1.1 20
2019-07-29 16:00:00 34 8 Sur 34 Sur 0 925.6 -1.1 21
2019-07-29 15:00:00 32.7 10 Sur 31 Sudeste 0 925.9 -1.1 23
2019-07-29 14:00:00 31.4 12 Sur 25 Sur 0 926.2 -0.6 25
2019-07-29 13:00:00 29.6 9 Sur 22 Sur 0 926.7 0 29
2019-07-29 12:00:00 27.3 7 Sur 18 Sudeste 0 927 0.5 38
2019-07-29 11:00:00 24.7 7 Sur 19 Sur 0 926.8 0.7 47
2019-07-29 10:00:00 21.6 4 Sudeste 11 Sudeste 0 926.7 1 57
2019-07-29 09:00:00 18.3 2 Norte 6 Nordeste 0 926.5 1.2 70
2019-07-29 08:00:00 17.4 3 Este 9 Sur 0 926.1 1 72
2019-07-29 07:00:00 17.7 6 Sur 10 Sur 0 925.7 0.7 69
2019-07-29 06:00:00 18.3 4 Sur 10 Sur 0 925.3 0.3 68
2019-07-29 05:00:00 19.3 4 Sur 9 Sudoeste 0 925.1 0.1 62
2019-07-29 04:00:00 20.3 4 Sur 10 Sur 0 925 0 55
2019-07-29 03:00:00 21.5 7 Sur 15 Sudoeste 0 925 0.1 40
2019-07-29 02:00:00 22.7 3 Sur 13 Sudoeste 0 925 0.3 36
2019-07-29 01:00:00 23.7 6 Oeste 14 Sudoeste 0 925 1 33
2019-07-29 00:00:00 24.5 8 Oeste 15 Oeste 0 924.9 1.5 31
2019-07-28 23:00:00 25.5 7 Sudoeste 17 Sudoeste 0 924.7 1.9 29
2019-07-28 22:00:00 26.8 10 Sudoeste 20 Sudoeste 0 924 1.4 27
2019-07-28 21:00:00 29.7 9 Sudoeste 22 Sudoeste 0 923.4 0.6 22
2019-07-28 20:00:00 33.5 8 Sur 23 Sur 0 922.8 -0.3 18
2019-07-28 19:00:00 33.7 8 Sur 23 Sudeste 0 922.6 -1.1 14
2019-07-28 18:00:00 33.1 8 Sur 23 Sur 0 922.8 -1.2 14
2019-07-28 17:00:00 33 10 Sur 27 Sur 0 923.1 -1.4 16
2019-07-28 16:00:00 33.2 8 Sur 26 Sur 0 923.7 -1.2 19
2019-07-28 15:00:00 31.8 10 Sur 26 Sur 0 924 -1.1 22
2019-07-28 14:00:00 30.2 8 Sur 21 Sur 0 924.5 -0.8 28
2019-07-28 13:00:00 28.5 8 Sur 19 Sur 0 924.9 -0.5 32
2019-07-28 12:00:00 26.9 6 Sudeste 19 Sudeste 0 925.1 -0.5 37
2019-07-28 11:00:00 23.9 5 Sudeste 17 Sudeste 0 925.3 -0.1 52
2019-07-28 10:00:00 20.5 6 Nordeste 12 Norte 0 925.4 0.4 69
2019-07-28 09:00:00 18.2 0 Calma 8 Norte 0 925.6 0.9 81
2019-07-28 08:00:00 17.6 4 Sur 8 Sur 0 925.4 0.9 83
2019-07-28 07:00:00 16.9 0 Calma 9 Sudoeste 0 925 0.3 83
2019-07-28 06:00:00 17.2 5 Sur 10 Sur 0 924.7 -0.2 84
2019-07-28 05:00:00 17.1 4 Noroeste 9 Oeste 0 924.5 -0.6 82
2019-07-28 04:00:00 17.8 5 Sur 13 Sur 0 924.7 -0.5 80
2019-07-28 03:00:00 18.4 5 Sur 14 Sur 0 924.9 -0.2 76
2019-07-28 02:00:00 19.3 6 Sudoeste 18 Sudoeste 0 925.1 0.1 70
2019-07-28 01:00:00 20.1 10 Sudoeste 24 Sudoeste 0 925.2 0.8 66
2019-07-28 00:00:00 21.1 13 Sudoeste 27 Sudoeste 0 925.1 1.1 60
2019-07-27 23:00:00 21.7 8 Oeste 22 Noroeste 0 925 1.5 50
2019-07-26 12:00:00 27 6 Sur 21 Sudoeste 0 927.5 0 43
2019-07-26 11:00:00 25.1 6 Sur 19 Sur 0 927.5 0.1 48
2019-07-26 10:00:00 22.7 5 Sur 13 Sur 0 927.7 0.5 56
2019-07-26 09:00:00 20 6 Sur 15 Sudoeste 0 927.5 0.5 65
2019-07-26 08:00:00 19.6 6 Sur 15 Sur 0 927.4 0.3 62
2019-07-26 07:00:00 20.8 4 Sur 13 Sur 0 927.2 -0.1 58
2019-07-26 06:00:00 21.5 6 Sur 13 Sur 0 927 -0.5 56
2019-07-26 05:00:00 21.9 4 Sudoeste 13 Sudoeste 0 927.1 -0.8 48
2019-07-26 04:00:00 22.4 4 Sudoeste 15 Sudoeste 0 927.3 -0.7 42
2019-07-26 03:00:00 23.1 6 Oeste 17 Sudoeste 0 927.5 -0.2 36
2019-07-26 02:00:00 24.1 9 Sudoeste 19 Sudoeste 0 927.9 0.6 31
2019-07-26 01:00:00 25.1 7 Sudoeste 22 Sudoeste 0 928 1.4 33
2019-07-26 00:00:00 26.5 5 Sur 16 Sudoeste 0 927.7 1.4 26
2019-07-25 23:00:00 28.1 8 Sudoeste 18 Sudoeste 0 927.3 1.3 18
2019-07-25 22:00:00 29.9 9 Oeste 18 Sudoeste 0 926.6 0.7 15
2019-07-25 21:00:00 32.7 10 Oeste 31 Noroeste 0 926.3 0.1 13
2019-07-25 20:00:00 36.5 13 Oeste 33 Noroeste 0 926 -0.7 12
2019-07-25 19:00:00 37.5 12 Sudoeste 33 Sur 0 925.9 -1.2 11
2019-07-25 18:00:00 37.6 13 Sudoeste 39 Sur 0 926.2 -1.4 12
2019-07-25 17:00:00 37.3 10 Sur 35 Sudoeste 0 926.7 -1.4 12
2019-07-25 16:00:00 37.2 10 Sur 36 Sur 0 927.1 -1.4 13
2019-07-25 15:00:00 36.7 8 Sur 26 Sur 0 927.6 -1.2 15
2019-07-25 14:00:00 35.6 7 Sur 23 Sur 0 928.1 -1 17
2019-07-25 13:00:00 33.6 5 Sur 17 Sur 0 928.5 -0.7 23
2019-07-25 12:00:00 31.7 6 Sur 14 Sur 0 928.8 -0.2 28
2019-07-25 11:00:00 29.2 5 Sudeste 12 Sur 0 929.1 0.4 35
2019-07-25 10:00:00 26 3 Oeste 11 Sur 0 929.2 0.7 44
2019-07-25 09:00:00 23 4 Nordeste 8 Sudeste 0 929 0.9 51
2019-07-25 08:00:00 21.9 3 Este 8 Sudeste 0 928.7 0.4 55
2019-07-25 07:00:00 21.9 2 Nordeste 12 Sur 0 928.5 0.1 55
2019-07-25 06:00:00 23.2 6 Sudeste 10 Sur 0 928.1 -0.3 49
2019-07-25 05:00:00 23.8 4 Sur 11 Sur 0 928.3 -0.2 45
2019-07-25 04:00:00 24.7 6 Sudeste 10 Sudeste 0 928.4 -0.3 42
2019-07-25 03:00:00 25.8 3 Sudoeste 16 Sudoeste 0 928.4 0.1 33
2019-07-25 02:00:00 26.8 9 Sudoeste 18 Sudoeste 0 928.5 0.9 30
2019-07-25 01:00:00 27.7 7 Sur 24 Sur 0 928.7 1.7 27
2019-07-25 00:00:00 28.6 7 Sur 21 Sur 0 928.3 1.7 23
2019-07-24 23:00:00 29.8 10 Sudoeste 21 Sudoeste 0 927.6 1.4 22
2019-07-24 22:00:00 31.5 9 Sudoeste 19 Sudoeste 0 927 0.9 21
2019-07-24 21:00:00 34.3 10 Sudoeste 29 Sudoeste 0 926.6 0.2 18
2019-07-24 20:00:00 38.2 9 Sudoeste 28 Sudoeste 0 926.2 -0.7 13
2019-07-24 19:00:00 39.2 11 Sudoeste 26 Sudoeste 0 926.1 -1.5 12
2019-07-24 18:00:00 39.4 12 Sudoeste 29 Sudoeste 0 926.4 -1.6 11
2019-07-24 17:00:00 39.4 6 Sudeste 22 Este 0 926.9 -1.7 11
2019-07-24 16:00:00 38.7 7 Sudeste 28 Sudoeste 0 927.6 -1.3 11
2019-07-24 15:00:00 37.7 11 Sur 30 Sur 0 928 -1.1 12
2019-07-24 14:00:00 36.9 8 Sur 29 Sur 0 928.6 -0.7 13
2019-07-24 13:00:00 35.6 9 Sur 28 Sudoeste 0 928.9 -0.4 14
2019-07-24 12:00:00 33.4 5 Sudoeste 19 Sudeste 0 929.1 -0.1 21
2019-07-24 11:00:00 30.7 5 Sudeste 13 Sudeste 0 929.3 0.2 29
2019-07-24 10:00:00 27.6 2 Este 10 Sudeste 0 929.3 0.2 42
2019-07-24 09:00:00 24.2 0 Calma 7 Sudeste 0 929.2 0.2 52
2019-07-24 08:00:00 23.2 0 Calma 5 Norte 0 929.1 -0.2 55
2019-07-24 07:00:00 22.9 4 Norte 5 Norte 0 929.1 -0.4 45
2019-07-24 06:00:00 23.5 2 Oeste 8 Sur 0 929 -0.7 47
2019-07-24 05:00:00 24.3 4 Sur 7 Sur 0 929.3 -0.8 39
2019-07-24 04:00:00 24.9 3 Sudoeste 8 Sudoeste 0 929.5 -0.5 34
2019-07-24 03:00:00 25.9 5 Sur 9 Sur 0 929.7 0.1 31
2019-07-24 02:00:00 26.2 4 Norte 12 Sur 0 930.1 0.9 29
2019-07-24 01:00:00 27.1 6 Sur 14 Sur 0 930 1.1 28
2019-07-24 00:00:00 27.6 4 Sudeste 12 Sudeste 0 929.6 1 27
2019-07-23 23:00:00 28.8 5 Sur 24 Sudoeste 0 929.2 1.4 26
2019-07-23 22:00:00 30.4 10 Sur 34 Sudoeste 0 928.9 1.4 26
2019-07-23 21:00:00 33.5 7 Sur 24 Sur 0 928.6 1 14
2019-07-23 20:00:00 36 10 Sur 41 Sur 0 927.8 -0.1 12
2019-07-23 19:00:00 36.7 8 Sur 28 Sudoeste 0 927.5 -1 13
2019-07-23 18:00:00 38.2 6 Sur 27 Sudoeste 0 927.6 -1.4 11
2019-07-23 17:00:00 40.4 10 Sudeste 26 Sur 0 927.9 -1.6 10
2019-07-23 16:00:00 39.1 10 Sudoeste 31 Sudoeste 0 928.5 -1.4 10
2019-07-23 15:00:00 38.9 11 Sur 36 Sudeste 0 929 -1.2 11
2019-07-23 14:00:00 37.8 9 Sur 29 Sur 0 929.5 -0.9 11
2019-07-23 13:00:00 36.4 10 Sur 26 Sur 0 929.9 -0.5 11
2019-07-23 12:00:00 34.5 7 Sudoeste 19 Sudoeste 0 930.2 -0.2 12
2019-07-23 11:00:00 32.3 4 Oeste 11 Sur 0 930.4 0.2 14
2019-07-23 10:00:00 29.3 7 Norte 13 Norte 0 930.4 0.3 18
2019-07-23 09:00:00 26.3 7 Nordeste 11 Nordeste 0 930.4 0.5 22
2019-07-23 08:00:00 23.3 5 Nordeste 11 Nordeste 0 930.2 0 29
2019-07-23 07:00:00 23.4 4 Noroeste 7 Norte 0 930.1 -0.6 30
2019-07-23 06:00:00 24 3 Norte 7 Nordeste 0 929.9 -1 35
2019-07-23 05:00:00 24.4 3 Norte 13 Sudoeste 0 930.2 -0.7 34
2019-07-23 04:00:00 24.9 2 Sudoeste 8 Sur 0 930.7 -0.3 37
2019-07-23 03:00:00 26.2 5 Sur 31 Sur 0 930.9 0.1 21
2019-07-23 02:00:00 27.2 9 Sur 24 Sur 0 930.9 0.6 19
2019-07-23 01:00:00 28.4 5 Sur 19 Sur 0 931 1.3 24
2019-07-23 00:00:00 29.7 8 Sur 19 Sur 0 930.8 1.6 23
2019-07-22 23:00:00 31.3 10 Sudeste 23 Sudeste 0 930.3 1.4 19
2019-07-22 22:00:00 32.9 8 Sudeste 27 Sur 0 929.7 0.6 17
2019-07-22 21:00:00 35.5 10 Sudeste 26 Sudeste 0 929.2 -0.4 15
2019-07-22 20:00:00 38.9 10 Sur 26 Sudeste 0 928.9 -1.3 12
2019-07-22 19:00:00 40.6 6 Sudeste 28 Sur 0 929.1 -1.6 11
2019-07-22 18:00:00 40.4 8 Sur 26 Sur 0 929.6 -1.6 11
2019-07-22 17:00:00 40.1 7 Sudeste 33 Sur 0 930.2 -1.5 11
2019-07-22 16:00:00 39.3 10 Sudeste 30 Sudeste 0 930.7 -1.5 11
2019-07-22 15:00:00 38.7 7 Sur 23 Sur 0 931.2 -1.4 12
2019-07-22 14:00:00 36.7 5 Este 26 Sudeste 0 931.7 -1.4 13
2019-07-22 13:00:00 35.3 8 Sudeste 19 Sudeste 0 932.2 -0.6 15
2019-07-22 12:00:00 32.7 8 Sudeste 19 Sudeste 0 932.6 -0.1 17
2019-07-22 11:00:00 29.8 6 Sudeste 18 Sudeste 0 933.1 0.7 24
2019-07-22 10:00:00 26.8 3 Nordeste 12 Este 0 932.8 0.7 38
2019-07-22 09:00:00 23.7 2 Este 7 Sur 0 932.7 0.8 49
2019-07-22 08:00:00 23 0 Calma 11 Sudeste 0 932.4 0.2 59
2019-07-22 07:00:00 23.2 4 Sur 8 Sudoeste 0 932.1 -0.1 58
2019-07-22 06:00:00 23.5 5 Sur 10 Sur 0 931.9 -0.4 56
2019-07-22 05:00:00 24.1 4 Sur 10 Sur 0 932.2 -0.4 50
2019-07-22 04:00:00 25.2 4 Sur 13 Sur 0 932.2 -0.3 41
2019-07-22 03:00:00 25.9 5 Sur 24 Sur 0 932.3 0 31
2019-07-22 02:00:00 26.9 9 Sur 23 Sur 0 932.6 1.1 32
2019-07-22 01:00:00 28.1 7 Sur 24 Sudeste 0 932.5 2 30
2019-07-22 00:00:00 29.5 10 Sudeste 25 Sudoeste 0 932.3 2.8 28
2019-07-21 23:00:00 31 6 Sudeste 23 Este 0 931.5 2.5 20
2019-07-21 22:00:00 33 8 Este 27 Este 0 930.5 1.6 18
2019-07-21 21:00:00 36.3 3 Sur 17 Sur 0 929.5 0.3 15
2019-07-21 20:00:00 39 6 Sur 21 Sur 0 929 -0.6 14
2019-07-21 19:00:00 40.2 7 Oeste 23 Sur 0 928.9 -1.4 13
2019-07-21 18:00:00 40.3 9 Sudoeste 23 Sur 0 929.2 -1.7 13
2019-07-21 17:00:00 40 8 Sur 22 Sur 0 929.6 -1.9 13
2019-07-21 16:00:00 39.6 8 Sur 23 Sudoeste 0 930.3 -1.4 14
2019-07-21 15:00:00 37.8 5 Oeste 19 Este 0 930.9 -0.7 16
2019-07-21 14:00:00 36.3 7 Sur 19 Sur 0 931.5 0.1 19
2019-07-21 13:00:00 34.4 8 Sur 21 Sur 0 931.7 0.3 21
2019-07-21 12:00:00 32 5 Sudoeste 15 Sur 0 931.6 0.4 24
2019-07-21 11:00:00 30.3 6 Sur 13 Sur 0 931.4 0.6 28
2019-07-21 10:00:00 27.3 5 Sur 13 Sudeste 0 931.4 0.6 33
2019-07-21 09:00:00 24.7 4 Sur 7 Sur 0 931.2 0.8 41
2019-07-21 08:00:00 23.5 4 Oeste 9 Oeste 0 930.8 0.4 41
2019-07-21 07:00:00 23.3 5 Sur 9 Sur 0 930.8 0.5 40
2019-07-21 06:00:00 23.8 5 Oeste 8 Oeste 0 930.4 -0.1 39
2019-07-21 05:00:00 24.3 4 Sur 9 Sur 0 930.4 0.1 37
2019-07-21 04:00:00 25.5 4 Sudoeste 14 Sudoeste 0 930.3 0.3 33
2019-07-21 03:00:00 26.6 5 Sur 15 Sur 0 930.5 1.1 30
2019-07-21 02:00:00 27.3 4 Nordeste 8 Sudoeste 0 930.3 1.4 27
2019-07-21 01:00:00 28.5 5 Sudeste 10 Sudeste 0 930 2 26
2019-07-21 00:00:00 30 5 Sur 11 Sur 0 929.4 2.1 23